createdAt,value
2023-04-18T00:00:07.397Z,6.80
2023-04-18T00:02:38.880Z,6.80
2023-04-18T00:05:07.972Z,6.80
2023-04-18T00:07:36.206Z,6.80
2023-04-18T00:10:05.143Z,6.80
2023-04-18T00:12:34.427Z,6.80
2023-04-18T00:15:03.026Z,6.80
2023-04-18T00:17:31.919Z,6.80
2023-04-18T00:20:02.313Z,6.80
2023-04-18T00:22:30.237Z,6.80
2023-04-18T00:24:58.078Z,6.80
2023-04-18T04:02:49.131Z,7.30
2023-04-18T04:05:17.406Z,7.20
2023-04-18T04:07:45.289Z,7.20
2023-04-18T04:10:14.769Z,7.20
2023-04-18T04:12:42.521Z,7.20
2023-04-18T04:15:13.859Z,7.20
2023-04-18T04:17:41.652Z,7.20
2023-04-18T04:20:12.419Z,7.20
2023-04-18T04:22:40.424Z,7.10
2023-04-18T04:25:08.957Z,7.10
2023-04-18T04:27:36.914Z,7.10
2023-04-18T04:30:05.393Z,7.10
2023-04-18T08:21:55.237Z,9.90
2023-04-18T08:24:23.197Z,10.00
2023-04-18T08:26:51.192Z,10.20
2023-04-18T08:29:19.142Z,10.30
2023-04-18T08:31:47.151Z,10.40
2023-04-18T08:34:15.066Z,10.40
2023-04-18T08:36:43.059Z,10.20
2023-04-18T08:39:12.468Z,10.30
2023-04-18T08:41:44.309Z,10.10
2023-04-18T08:44:13.144Z,10.40
2023-04-18T08:54:12.456Z,10.50
2023-04-18T08:56:41.061Z,10.40
2023-04-18T08:59:09.535Z,10.20
2023-04-18T09:01:57.011Z,10.10
2023-04-18T09:04:37.008Z,10.20
2023-04-18T09:07:08.840Z,10.40
2023-04-18T09:18:26.209Z,10.50
2023-04-18T09:20:55.058Z,10.40
2023-04-18T09:30:58.272Z,10.50
2023-04-18T09:54:01.685Z,9.90
2023-04-18T09:56:33.090Z,10.10
2023-04-18T09:59:10.229Z,10.20
2023-04-18T10:01:39.981Z,10.60
2023-04-18T10:04:08.150Z,10.80
2023-04-18T10:06:39.743Z,11.10
2023-04-18T10:09:10.952Z,11.60
2023-04-18T10:11:42.157Z,11.60
2023-04-18T10:14:14.543Z,11.70
2023-04-18T10:16:45.545Z,11.90
2023-04-18T10:19:26.844Z,12.30
2023-04-18T10:21:55.856Z,12.40
2023-04-18T10:24:54.022Z,12.50
2023-04-18T10:28:00.490Z,12.10
2023-04-18T10:30:54.743Z,11.80
2023-04-18T10:36:16.934Z,11.60
2023-04-18T10:38:49.857Z,11.50
2023-04-18T10:41:26.253Z,11.40
2023-04-18T10:44:21.903Z,11.60
2023-04-18T10:47:20.969Z,11.30
2023-04-18T10:50:01.265Z,11.30
2023-04-18T10:52:30.400Z,11.50
2023-04-18T10:55:18.327Z,11.30
2023-04-18T10:57:50.586Z,11.20
2023-04-18T11:00:21.625Z,11.20
2023-04-18T11:02:51.719Z,11.00
2023-04-18T11:05:22.075Z,11.20
2023-04-18T11:07:50.324Z,11.20
2023-04-18T11:10:20.089Z,11.00
2023-04-18T11:12:49.903Z,10.90
2023-04-18T11:15:21.945Z,11.10
2023-04-18T11:18:01.305Z,11.30
2023-04-18T11:20:30.024Z,11.40
2023-04-18T11:22:59.737Z,11.30
2023-04-18T11:25:29.516Z,11.40
2023-04-18T11:28:00.713Z,11.10
2023-04-18T11:30:45.504Z,11.50
2023-04-18T11:33:14.299Z,11.60
2023-04-18T11:35:43.608Z,11.80
2023-04-18T11:38:14.396Z,11.80
2023-04-18T11:40:51.893Z,12.10
2023-04-18T11:43:24.063Z,12.20
2023-04-18T11:45:53.784Z,12.40
2023-04-18T11:48:22.751Z,12.50
2023-04-18T11:50:51.181Z,12.60
2023-04-18T11:53:33.572Z,12.60
2023-04-18T11:56:03.553Z,12.40
2023-04-18T11:58:34.089Z,12.30
2023-04-18T12:01:16.198Z,12.00
2023-04-18T12:03:45.809Z,11.80
2023-04-18T12:06:13.873Z,11.70
2023-04-18T17:59:20.215Z,9.80
2023-04-18T18:01:48.308Z,9.90
2023-04-18T18:04:19.929Z,10.00
2023-04-18T18:06:55.164Z,10.00
2023-04-18T18:09:23.154Z,10.00
2023-04-18T18:11:53.400Z,9.90
2023-04-18T18:14:24.002Z,9.90
2023-04-18T18:16:51.863Z,9.90
2023-04-18T18:19:20.537Z,9.90
2023-04-18T18:21:48.487Z,9.90
2023-04-18T18:24:18.625Z,9.90
2023-04-18T18:26:46.609Z,9.80
2023-04-18T18:29:14.639Z,9.90
2023-04-18T18:31:47.305Z,9.80
2023-04-18T18:34:15.659Z,9.80
2023-04-18T18:36:43.654Z,9.80
2023-04-18T18:39:14.361Z,9.80
2023-04-18T18:41:42.563Z,9.80
2023-04-18T18:44:15.116Z,9.80
2023-04-18T18:46:43.460Z,9.80
2023-04-18T18:49:13.622Z,9.70
2023-04-18T18:51:41.950Z,9.80
2023-04-18T18:54:09.776Z,9.80
2023-04-18T18:56:38.940Z,9.80
2023-04-18T18:59:07.133Z,9.80
2023-04-18T19:01:35.591Z,9.80
2023-04-18T19:04:03.778Z,9.80
2023-04-18T19:06:34.194Z,9.80
2023-04-18T19:09:07.699Z,9.80
2023-04-18T19:11:35.749Z,9.80
2023-04-18T19:14:03.984Z,9.90
